createdAt,value
2023-01-23T00:01:22.609Z,18.15
2023-01-23T00:03:49.318Z,16.33
2023-01-23T00:06:16.871Z,17.23
2023-01-23T00:08:45.560Z,18.35
2023-01-23T00:11:18.386Z,17.50
2023-01-23T00:13:45.215Z,17.60
2023-01-23T00:16:14.873Z,16.48
2023-01-23T00:18:41.659Z,19.15
2023-01-23T00:21:11.688Z,15.65
2023-01-23T00:23:38.730Z,16.20
2023-01-23T00:26:11.896Z,14.68
2023-01-23T00:28:40.224Z,14.30
2023-01-23T00:31:10.710Z,16.55
2023-01-23T00:33:37.469Z,14.95
2023-01-23T00:36:04.360Z,17.60
2023-01-23T00:38:32.398Z,14.65
2023-01-23T00:40:59.023Z,16.98
2023-01-23T00:43:26.131Z,14.55
2023-01-23T00:45:52.875Z,19.67
2023-01-23T00:48:19.623Z,15.85
2023-01-23T00:50:46.911Z,16.70
2023-01-23T00:53:13.730Z,17.13
2023-01-23T00:55:41.220Z,16.92
2023-01-23T00:58:09.292Z,16.00
2023-01-23T01:00:37.583Z,16.00
2023-01-23T01:03:05.337Z,17.33
2023-01-23T01:05:32.267Z,17.63
2023-01-23T01:07:58.971Z,17.05
2023-01-23T01:10:31.715Z,18.95
2023-01-23T01:13:00.109Z,15.32
2023-01-23T01:15:27.695Z,17.20
2023-01-23T01:17:56.249Z,18.30
2023-01-23T01:20:23.960Z,18.33
2023-01-23T01:22:51.092Z,18.13
2023-01-23T01:25:18.096Z,18.90
2023-01-23T01:27:45.101Z,19.52
2023-01-23T01:30:13.949Z,21.13
2023-01-23T01:32:41.650Z,16.73
2023-01-23T01:35:09.257Z,17.10
2023-01-23T01:37:38.154Z,15.20
2023-01-23T01:40:12.439Z,18.52
2023-01-23T01:42:44.267Z,18.05
2023-01-23T01:45:48.487Z,18.70
2023-01-23T01:48:15.767Z,18.92
2023-01-23T01:50:43.315Z,18.58
2023-01-23T01:53:11.366Z,18.17
2023-01-23T01:55:39.305Z,19.55
2023-01-23T01:58:06.629Z,15.85
2023-01-23T02:00:33.409Z,18.77
2023-01-23T02:03:03.426Z,18.23
2023-01-23T02:05:46.270Z,16.92
2023-01-23T02:08:35.893Z,19.35
2023-01-23T02:11:03.643Z,17.48
2023-01-23T02:13:39.431Z,17.13
2023-01-23T02:16:12.362Z,18.15
2023-01-23T02:18:44.658Z,21.83
2023-01-23T02:21:13.433Z,17.20
2023-01-23T02:23:50.016Z,18.60
2023-01-23T02:26:37.281Z,17.65
2023-01-23T02:29:05.576Z,18.70
2023-01-23T02:31:42.889Z,19.80
2023-01-23T02:34:12.606Z,17.35
2023-01-23T02:36:42.901Z,18.77
2023-01-23T02:39:13.456Z,19.20
2023-01-23T02:41:43.348Z,22.52
2023-01-23T02:44:28.820Z,18.92
2023-01-23T02:47:04.825Z,18.95
2023-01-23T02:49:31.834Z,19.40
2023-01-23T02:51:58.585Z,19.50
2023-01-23T02:54:25.955Z,17.33
2023-01-23T02:56:53.197Z,19.05
2023-01-23T02:59:40.988Z,17.65
2023-01-23T03:02:08.339Z,16.38
2023-01-23T03:04:35.033Z,15.65
2023-01-23T03:07:02.096Z,18.85
2023-01-23T03:09:29.467Z,19.45
2023-01-23T03:11:56.647Z,16.77
2023-01-23T03:14:24.479Z,14.38
2023-01-23T03:16:54.041Z,19.40
2023-01-23T03:19:25.290Z,15.27
2023-01-23T03:21:52.541Z,17.02
2023-01-23T03:24:20.533Z,16.98
2023-01-23T03:26:48.958Z,15.80
2023-01-23T03:29:37.509Z,17.92
2023-01-23T03:32:04.612Z,17.45
2023-01-23T03:34:32.124Z,16.35
2023-01-23T03:36:59.632Z,18.80
2023-01-23T03:39:44.929Z,17.83
2023-01-23T03:42:14.779Z,19.60
2023-01-23T03:44:41.839Z,20.52
2023-01-23T03:47:08.906Z,18.05
2023-01-23T03:49:37.488Z,19.40
2023-01-23T03:52:04.324Z,15.52
2023-01-23T03:54:31.436Z,19.70
2023-01-23T03:56:58.186Z,18.25
2023-01-23T03:59:58.877Z,14.85
2023-01-23T04:02:29.450Z,20.95
2023-01-23T04:04:56.432Z,21.42
2023-01-23T04:07:23.154Z,18.88
2023-01-23T04:09:50.385Z,17.15
2023-01-23T04:12:17.446Z,18.00
2023-01-23T04:14:48.156Z,20.08
2023-01-23T04:17:15.572Z,20.05
2023-01-23T04:19:42.751Z,19.48
2023-01-23T04:22:10.499Z,19.45
2023-01-23T04:24:55.217Z,22.65
2023-01-23T04:27:22.090Z,18.67
2023-01-23T04:29:51.063Z,17.33
2023-01-23T04:32:19.711Z,13.57
2023-01-23T04:34:47.330Z,21.80
2023-01-23T04:37:14.857Z,19.55
2023-01-23T04:39:41.561Z,17.27
2023-01-23T04:42:08.406Z,16.15
2023-01-23T04:45:00.496Z,16.98
2023-01-23T04:47:30.487Z,16.88
2023-01-23T04:49:58.071Z,18.55
2023-01-23T04:52:24.840Z,18.38
2023-01-23T04:57:23.028Z,19.70
2023-01-23T04:59:55.701Z,16.85
2023-01-23T05:02:22.924Z,16.63
2023-01-23T05:04:50.013Z,16.95
2023-01-23T05:07:16.906Z,21.45
2023-01-23T05:09:57.894Z,16.88
2023-01-23T05:12:24.615Z,14.20
2023-01-23T05:14:51.282Z,20.08
2023-01-23T05:17:17.980Z,17.42
2023-01-23T05:19:50.131Z,21.15
2023-01-23T05:22:18.064Z,19.52
2023-01-23T05:24:45.125Z,19.73
2023-01-23T05:27:12.946Z,20.73
2023-01-23T05:29:42.436Z,18.47
2023-01-23T05:32:17.815Z,19.23
2023-01-23T05:34:47.548Z,20.40
2023-01-23T05:37:20.413Z,16.98
2023-01-23T05:39:50.953Z,22.63
2023-01-23T05:42:18.388Z,23.70
2023-01-23T05:45:03.705Z,18.73
2023-01-23T05:47:37.517Z,17.98
2023-01-23T05:50:08.122Z,20.52
2023-01-23T05:52:36.694Z,18.90
2023-01-23T05:55:04.018Z,16.63
2023-01-23T05:57:32.184Z,18.23
2023-01-23T06:00:22.068Z,20.92
2023-01-23T06:03:08.929Z,18.63
2023-01-23T06:06:01.583Z,18.02
2023-01-23T06:08:28.586Z,19.45
2023-01-23T06:10:58.566Z,21.77
2023-01-23T06:13:26.475Z,17.70
2023-01-23T06:15:53.251Z,20.60
2023-01-23T06:18:20.052Z,18.98
2023-01-23T06:20:47.099Z,16.33
2023-01-23T06:23:14.244Z,22.52
2023-01-23T06:25:41.264Z,22.95
2023-01-23T06:28:10.525Z,24.27
2023-01-23T06:30:37.551Z,21.45
2023-01-23T06:33:10.398Z,17.75
2023-01-23T06:35:41.154Z,17.88
2023-01-23T06:38:07.941Z,23.65
2023-01-23T06:40:36.005Z,19.55
2023-01-23T06:43:20.084Z,19.23
2023-01-23T06:45:47.715Z,19.08
2023-01-23T06:48:16.908Z,19.70
2023-01-23T06:50:43.932Z,20.67
2023-01-23T06:53:17.120Z,19.33
2023-01-23T06:55:45.168Z,18.40
2023-01-23T06:58:13.608Z,20.35
2023-01-23T07:00:44.425Z,18.20
2023-01-23T07:03:17.490Z,15.57
2023-01-23T07:05:44.388Z,17.83
2023-01-23T07:08:11.728Z,16.73
2023-01-23T07:10:38.732Z,17.35
2023-01-23T07:13:10.883Z,19.10
2023-01-23T07:15:39.670Z,19.08
2023-01-23T07:18:07.793Z,18.30
2023-01-23T07:20:34.443Z,16.77
2023-01-23T07:23:04.562Z,20.38
2023-01-23T07:25:31.532Z,15.20
2023-01-23T07:27:58.162Z,18.40
2023-01-23T07:30:24.961Z,19.88
2023-01-23T07:32:51.637Z,15.57
2023-01-23T07:35:18.505Z,16.35
2023-01-23T07:37:45.157Z,20.08
2023-01-23T07:40:12.232Z,17.30
2023-01-23T07:42:40.154Z,14.23
2023-01-23T07:45:09.974Z,16.27
2023-01-23T07:47:39.649Z,12.40
2023-01-23T07:50:08.360Z,15.02
2023-01-23T07:52:35.081Z,16.90
2023-01-23T07:55:02.517Z,16.85
2023-01-23T07:57:29.304Z,18.50
2023-01-23T07:59:56.035Z,14.85
2023-01-23T08:02:22.808Z,14.13
2023-01-23T08:04:49.479Z,14.90
2023-01-23T08:07:16.164Z,13.57
2023-01-23T08:09:42.848Z,15.40
2023-01-23T08:12:09.529Z,13.52
2023-01-23T08:14:36.189Z,14.30
2023-01-23T08:17:02.874Z,16.15
2023-01-23T08:19:29.523Z,15.40
2023-01-23T08:21:56.252Z,13.32
2023-01-23T08:24:23.092Z,15.30
2023-01-23T08:26:49.858Z,12.05
2023-01-23T08:29:16.573Z,16.48
2023-01-23T08:31:43.301Z,15.88
2023-01-23T08:34:10.098Z,13.88
2023-01-23T08:36:37.502Z,14.07
2023-01-23T08:39:04.790Z,15.23
2023-01-23T08:41:31.488Z,13.75
2023-01-23T08:44:01.648Z,14.85
2023-01-23T08:46:29.250Z,14.27
2023-01-23T08:48:55.995Z,15.18
2023-01-23T08:51:22.813Z,14.30
2023-01-23T08:53:52.753Z,15.02
2023-01-23T08:56:21.711Z,14.55
2023-01-23T08:58:49.058Z,16.60
2023-01-23T09:01:19.273Z,16.23
2023-01-23T09:03:46.892Z,47.35
2023-01-23T09:06:15.645Z,16.90
2023-01-23T09:08:42.684Z,17.23
2023-01-23T09:11:11.051Z,19.05
2023-01-23T09:13:38.044Z,20.65
2023-01-23T09:16:05.735Z,16.83
2023-01-23T09:18:32.495Z,17.95
2023-01-23T09:20:59.257Z,18.45
2023-01-23T09:23:26.062Z,17.33
2023-01-23T09:25:52.969Z,16.73
2023-01-23T09:28:19.723Z,17.95
2023-01-23T09:30:46.409Z,16.92
2023-01-23T09:33:13.136Z,16.80
2023-01-23T09:35:39.813Z,16.45
2023-01-23T09:38:07.721Z,12.18
2023-01-23T09:40:45.885Z,18.15
2023-01-23T09:43:12.475Z,14.07
2023-01-23T09:45:41.439Z,17.30
2023-01-23T09:48:17.127Z,14.65
2023-01-23T09:51:17.067Z,17.05
2023-01-23T09:53:43.824Z,15.70
2023-01-23T09:56:30.575Z,13.75
2023-01-23T09:59:27.678Z,13.68
2023-01-23T10:01:54.627Z,17.80
2023-01-23T10:04:21.964Z,15.10
2023-01-23T10:06:51.695Z,11.85
2023-01-23T10:10:02.704Z,12.43
2023-01-23T10:12:37.149Z,12.67
2023-01-23T10:15:15.098Z,13.50
2023-01-23T10:18:08.673Z,17.98
2023-01-23T10:20:50.324Z,13.63
2023-01-23T10:23:32.209Z,13.10
2023-01-23T10:25:59.876Z,16.27
2023-01-23T10:28:38.946Z,26.35
2023-01-23T10:31:10.928Z,19.08
2023-01-23T10:33:54.455Z,16.08
2023-01-23T10:36:42.099Z,16.88
2023-01-23T10:39:25.165Z,13.85
2023-01-23T10:42:01.513Z,13.57
2023-01-23T10:44:28.878Z,19.20
2023-01-23T10:47:02.345Z,14.70
2023-01-23T10:49:32.133Z,12.45
2023-01-23T10:51:59.484Z,13.90
2023-01-23T10:54:32.127Z,14.30
2023-01-23T10:57:04.781Z,16.13
2023-01-23T10:59:39.069Z,15.93
2023-01-23T11:02:14.682Z,14.57
2023-01-23T11:04:43.740Z,19.25
2023-01-23T11:07:16.444Z,15.45
2023-01-23T11:09:48.886Z,10.27
2023-01-23T11:12:40.399Z,10.90
2023-01-23T11:15:33.396Z,13.43
2023-01-23T11:18:01.530Z,11.95
2023-01-23T11:20:32.358Z,14.25
2023-01-23T11:23:08.506Z,12.10
2023-01-23T11:25:48.864Z,11.20
2023-01-23T11:28:34.095Z,11.50
2023-01-23T11:31:16.141Z,10.10
2023-01-23T11:33:58.157Z,11.63
2023-01-23T11:36:52.598Z,12.95
2023-01-23T11:39:37.125Z,13.00
2023-01-23T11:42:04.280Z,15.38
2023-01-23T11:44:44.995Z,13.23
2023-01-23T11:50:06.143Z,13.63
2023-01-23T11:52:38.622Z,13.98
2023-01-23T11:55:38.877Z,13.80
2023-01-23T11:58:37.182Z,13.82
2023-01-23T12:01:43.753Z,12.95
2023-01-23T12:04:27.542Z,13.93
2023-01-23T12:07:16.022Z,11.65
2023-01-23T12:09:54.798Z,12.00
2023-01-23T12:13:03.290Z,11.00
2023-01-23T12:16:08.513Z,12.40
2023-01-23T12:18:49.732Z,8.98
2023-01-23T12:21:27.663Z,9.02
2023-01-23T12:24:09.271Z,11.77
2023-01-23T12:26:49.324Z,11.13
2023-01-23T12:29:37.791Z,10.77
2023-01-23T12:32:39.867Z,10.55
2023-01-23T12:35:27.468Z,13.07
2023-01-23T12:38:30.659Z,11.02
2023-01-23T12:41:06.244Z,11.65
2023-01-23T12:43:59.555Z,9.52
2023-01-23T12:46:35.554Z,11.98
2023-01-23T12:49:30.633Z,10.57
2023-01-23T12:52:03.288Z,14.07
2023-01-23T12:54:42.909Z,11.45
2023-01-23T12:57:11.088Z,11.55
2023-01-23T12:59:53.395Z,10.13
2023-01-23T13:02:20.038Z,8.77
2023-01-23T13:04:58.852Z,11.43
2023-01-23T13:07:44.336Z,11.68
2023-01-23T13:10:14.018Z,10.63
2023-01-23T13:12:40.956Z,9.10
2023-01-23T13:15:18.999Z,11.75
2023-01-23T13:20:38.083Z,12.07
2023-01-23T13:23:33.903Z,10.48
2023-01-23T13:26:23.097Z,10.02
2023-01-23T13:28:57.589Z,9.73
2023-01-23T13:31:50.647Z,12.82
2023-01-23T13:34:17.525Z,10.07
2023-01-23T13:36:49.324Z,14.00
2023-01-23T13:39:30.402Z,9.20
2023-01-23T13:42:12.689Z,9.52
2023-01-23T13:45:14.189Z,9.02
2023-01-23T14:22:19.956Z,8.73
2023-01-23T14:24:48.959Z,8.80
2023-01-23T14:27:29.475Z,9.32
2023-01-23T14:32:25.453Z,11.25
2023-01-23T14:34:52.115Z,12.98
2023-01-23T14:37:19.032Z,10.63
2023-01-23T14:39:53.739Z,9.13
2023-01-23T14:42:27.893Z,11.43
2023-01-23T14:44:56.790Z,10.85
2023-01-23T14:47:34.304Z,11.00
2023-01-23T14:50:02.639Z,9.48
2023-01-23T14:52:31.106Z,8.82
2023-01-23T14:55:01.191Z,9.75
2023-01-23T14:57:35.239Z,12.70
2023-01-23T15:00:03.561Z,10.35
2023-01-23T15:02:33.443Z,12.38
2023-01-23T15:05:22.731Z,14.02
2023-01-23T15:08:03.072Z,10.32
2023-01-23T15:10:43.493Z,11.98
2023-01-23T15:13:23.410Z,13.80
2023-01-23T15:16:02.730Z,13.57
2023-01-23T15:18:32.717Z,12.43
2023-01-23T15:21:03.099Z,12.73
2023-01-23T15:23:31.811Z,14.40
2023-01-23T15:26:30.946Z,14.05
2023-01-23T15:29:18.980Z,11.70
2023-01-23T15:31:50.184Z,14.00
2023-01-23T15:34:16.943Z,13.10
2023-01-23T15:36:46.147Z,17.98
2023-01-23T15:39:19.159Z,12.65
2023-01-23T15:41:54.740Z,10.32
2023-01-23T15:44:23.447Z,12.05
2023-01-23T15:46:50.450Z,12.75
2023-01-23T15:49:25.358Z,12.07
2023-01-23T15:51:55.478Z,10.00
2023-01-23T15:54:27.695Z,13.30
2023-01-23T15:57:06.481Z,11.40
2023-01-23T15:59:34.825Z,15.38
2023-01-23T16:02:02.588Z,14.48
2023-01-23T16:04:29.244Z,13.13
2023-01-23T16:06:57.367Z,12.65
2023-01-23T16:09:30.813Z,11.35
2023-01-23T16:11:59.739Z,12.38
2023-01-23T16:14:26.657Z,12.02
2023-01-23T16:16:53.319Z,13.13
2023-01-23T16:19:20.265Z,13.38
2023-01-23T16:21:59.063Z,12.70
2023-01-23T16:24:27.100Z,12.77
2023-01-23T16:26:56.621Z,10.75
2023-01-23T16:29:32.022Z,12.60
2023-01-23T16:32:02.778Z,12.45
2023-01-23T16:34:29.607Z,11.85
2023-01-23T16:36:59.467Z,13.57
2023-01-23T16:39:29.399Z,12.77
2023-01-23T16:41:56.113Z,14.80
2023-01-23T16:44:24.109Z,12.18
2023-01-23T16:46:52.947Z,11.25
2023-01-23T16:49:20.614Z,10.75
2023-01-23T16:52:01.546Z,12.55
2023-01-23T16:54:28.384Z,14.18
2023-01-23T16:56:57.032Z,13.35
2023-01-23T16:59:37.139Z,11.73
2023-01-23T17:02:18.506Z,12.55
2023-01-23T17:04:45.219Z,12.45
2023-01-23T17:07:17.194Z,13.65
2023-01-23T17:09:45.414Z,14.40
2023-01-23T17:12:21.048Z,18.45
2023-01-23T17:14:49.068Z,13.02
2023-01-23T17:17:27.919Z,15.13
2023-01-23T17:19:55.188Z,10.20
2023-01-23T17:22:25.606Z,12.45
2023-01-23T17:24:52.325Z,12.60
2023-01-23T17:27:19.085Z,13.50
2023-01-23T17:29:45.835Z,14.13
2023-01-23T17:32:27.087Z,13.50
2023-01-23T17:34:54.119Z,16.75
2023-01-23T17:37:22.828Z,16.75
2023-01-23T17:39:49.669Z,12.93
2023-01-23T17:42:16.530Z,13.77
2023-01-23T17:44:43.178Z,12.52
2023-01-23T17:47:12.370Z,12.73
2023-01-23T17:49:39.831Z,11.82
2023-01-23T17:52:06.758Z,13.40
2023-01-23T17:54:33.418Z,18.67
2023-01-23T17:57:00.107Z,15.93
2023-01-23T17:59:26.909Z,21.70
2023-01-23T18:01:53.777Z,13.38
2023-01-23T18:04:22.586Z,17.48
2023-01-23T18:06:50.529Z,15.73
2023-01-23T18:09:18.886Z,11.30
2023-01-23T18:11:52.171Z,10.07
2023-01-23T18:14:34.780Z,8.55
2023-01-23T18:17:02.882Z,10.05
2023-01-23T18:19:30.361Z,10.68
2023-01-23T18:21:57.839Z,10.95
2023-01-23T18:24:32.009Z,12.65
2023-01-23T18:27:09.867Z,11.75
2023-01-23T18:29:36.541Z,13.13
2023-01-23T18:32:23.954Z,12.35
2023-01-23T18:34:53.808Z,15.57
2023-01-23T18:37:28.884Z,15.48
2023-01-23T18:40:13.446Z,15.50
2023-01-23T18:43:13.027Z,16.83
2023-01-23T18:45:39.900Z,14.63
2023-01-23T18:48:24.642Z,15.68
2023-01-23T18:51:01.409Z,16.52
2023-01-23T18:53:53.544Z,12.43
2023-01-23T18:56:29.682Z,17.38
2023-01-23T18:59:19.095Z,16.65
2023-01-23T19:01:58.912Z,15.30
2023-01-23T19:04:42.957Z,16.08
2023-01-23T19:07:18.788Z,14.52
2023-01-23T19:09:48.482Z,13.38
2023-01-23T19:12:25.649Z,18.02
2023-01-23T19:15:02.051Z,13.63
2023-01-23T19:17:49.010Z,16.33
2023-01-23T19:20:24.417Z,16.52
2023-01-23T19:23:24.573Z,16.33
2023-01-23T19:25:51.361Z,16.30
2023-01-23T19:28:18.319Z,18.67
2023-01-23T19:30:45.338Z,17.85
2023-01-23T19:33:17.398Z,18.83
2023-01-23T19:35:45.723Z,19.23
2023-01-23T19:38:12.410Z,18.08
2023-01-23T19:40:40.053Z,15.15
2023-01-23T19:43:14.479Z,16.33
2023-01-23T19:45:42.354Z,17.13
2023-01-23T19:48:09.220Z,15.98
2023-01-23T19:50:36.255Z,16.67
2023-01-23T19:53:03.356Z,17.95
2023-01-23T19:55:35.867Z,23.58
2023-01-23T19:58:02.768Z,16.02
2023-01-23T20:00:31.535Z,17.73
2023-01-23T20:02:59.139Z,17.08
2023-01-23T20:05:26.459Z,18.42
2023-01-23T20:07:54.158Z,17.77
2023-01-23T20:10:20.937Z,16.58
2023-01-23T20:12:52.026Z,16.77
2023-01-23T20:15:21.403Z,18.38
2023-01-23T20:17:48.413Z,14.77
2023-01-23T20:20:15.958Z,17.60
2023-01-23T20:22:43.793Z,17.95
2023-01-23T20:25:15.708Z,17.35
2023-01-23T20:27:43.671Z,16.25
2023-01-23T20:30:14.820Z,18.25
2023-01-23T20:32:42.300Z,15.00
2023-01-23T20:35:09.834Z,16.95
2023-01-23T20:37:36.695Z,18.73
2023-01-23T20:40:03.639Z,16.05
2023-01-23T20:42:30.305Z,18.70
2023-01-23T20:44:56.996Z,18.50
2023-01-23T20:47:23.683Z,16.95
2023-01-23T20:49:50.367Z,18.55
2023-01-23T20:52:35.652Z,15.93
2023-01-23T20:55:02.512Z,18.80
2023-01-23T20:57:49.156Z,21.50
2023-01-23T21:00:16.341Z,17.13
2023-01-23T21:02:43.097Z,15.90
2023-01-23T21:05:09.801Z,16.13
2023-01-23T21:07:36.589Z,14.48
2023-01-23T21:10:03.420Z,16.25
2023-01-23T21:12:30.142Z,17.50
2023-01-23T21:14:56.909Z,18.30
2023-01-23T21:17:23.622Z,16.70
2023-01-23T21:19:50.261Z,18.08
2023-01-23T21:22:17.020Z,17.88
2023-01-23T21:24:43.986Z,17.25
2023-01-23T21:27:10.670Z,16.65
2023-01-23T21:29:37.808Z,17.33
2023-01-23T21:32:04.616Z,19.05
2023-01-23T21:34:31.269Z,17.77
2023-01-23T21:36:57.999Z,17.35
2023-01-23T21:39:24.636Z,15.75
2023-01-23T21:41:51.373Z,17.25
2023-01-23T21:44:18.053Z,14.55
2023-01-23T21:46:46.937Z,17.55
2023-01-23T21:49:13.645Z,18.63
2023-01-23T21:51:40.375Z,18.25
2023-01-23T21:54:07.116Z,18.65
2023-01-23T21:56:33.983Z,17.60
2023-01-23T21:59:00.730Z,17.85
2023-01-23T22:01:35.771Z,18.00
2023-01-23T22:04:04.775Z,16.10
2023-01-23T22:06:32.959Z,15.95
2023-01-23T22:09:00.103Z,16.08
2023-01-23T22:11:26.822Z,16.27
2023-01-23T22:13:54.030Z,14.52
2023-01-23T22:16:25.284Z,13.13
2023-01-23T22:18:55.231Z,21.05
2023-01-23T22:21:22.225Z,14.93
2023-01-23T22:23:49.012Z,14.38
2023-01-23T22:26:15.839Z,18.33
2023-01-23T22:28:42.623Z,16.65
2023-01-23T22:31:14.949Z,19.00
2023-01-23T22:33:43.923Z,19.30
2023-01-23T22:36:14.243Z,18.73
2023-01-23T22:38:40.952Z,18.00
2023-01-23T22:41:08.024Z,15.93
2023-01-23T22:43:34.844Z,17.83
2023-01-23T22:46:03.388Z,17.67
2023-01-23T22:48:30.162Z,17.83
2023-01-23T22:51:00.119Z,16.77
2023-01-23T22:53:26.849Z,16.88
2023-01-23T22:55:53.554Z,15.73
2023-01-23T22:58:20.189Z,15.90
2023-01-23T23:00:48.403Z,13.82
2023-01-23T23:03:15.117Z,17.13
2023-01-23T23:05:41.828Z,15.88
2023-01-23T23:08:08.476Z,14.88
2023-01-23T23:10:35.122Z,15.30
2023-01-23T23:13:01.884Z,15.40
2023-01-23T23:15:28.543Z,14.63
2023-01-23T23:17:55.205Z,14.05
2023-01-23T23:20:21.826Z,18.85
2023-01-23T23:22:48.509Z,16.17
2023-01-23T23:25:15.200Z,18.67
2023-01-23T23:27:41.969Z,16.52
2023-01-23T23:30:10.405Z,13.60
2023-01-23T23:32:37.079Z,13.90
2023-01-23T23:35:03.903Z,12.95
2023-01-23T23:37:30.530Z,14.20
2023-01-23T23:39:57.319Z,12.82
2023-01-23T23:42:24.050Z,14.60
2023-01-23T23:44:50.701Z,15.73
2023-01-23T23:47:17.383Z,13.30
2023-01-23T23:49:44.036Z,14.07
2023-01-23T23:52:10.879Z,14.30
2023-01-23T23:54:37.534Z,15.07
2023-01-23T23:57:04.290Z,14.98
2023-01-23T23:59:31.007Z,12.50
